Time;durP1;ratioP1;P1;durP2;ratioP2;P2;SDS_P1;SDS_P2;PMS_P1;PMS_P2;Temp;Humidity;BMP_temperature;BMP_pressure;BME280_temperature;BME280_humidity;BME280_pressure;Samples;Min_cycle;Max_cycle;Signal;HPM_P1;HPM_P2
2023/01/02 00:00:56;;;;;;;7.97;3.00;;;13.80;99.90;;;;;;5072378;28;20096;-68
2023/01/02 00:03:21;;;;;;;7.25;3.10;;;13.90;99.90;;;;;;5073293;28;20400;-68
2023/01/02 00:05:47;;;;;;;6.63;3.17;;;14.00;99.90;;;;;;5073032;28;20031;-68
2023/01/02 00:08:12;;;;;;;7.60;3.13;;;14.00;99.90;;;;;;5072087;28;20442;-68
2023/01/02 00:10:38;;;;;;;9.30;2.67;;;13.90;99.90;;;;;;5073035;28;20028;-68
2023/01/02 00:13:03;;;;;;;8.68;3.08;;;13.90;99.90;;;;;;5071961;28;20365;-68
2023/01/02 00:15:29;;;;;;;9.85;2.90;;;13.80;99.90;;;;;;5072774;28;20017;-68
2023/01/02 00:17:54;;;;;;;8.35;3.03;;;13.80;99.90;;;;;;5071982;28;20024;-69
2023/01/02 00:20:20;;;;;;;6.32;3.05;;;13.80;99.90;;;;;;5071317;28;20024;-68
2023/01/02 00:22:45;;;;;;;9.10;3.00;;;13.90;99.90;;;;;;5072230;28;20027;-68
2023/01/02 00:25:11;;;;;;;10.27;3.70;;;13.90;99.90;;;;;;5073114;28;20110;-68
2023/01/02 00:27:37;;;;;;;8.70;2.92;;;13.90;99.90;;;;;;5072310;28;20067;-68
2023/01/02 00:30:03;;;;;;;16.42;3.25;;;13.90;99.90;;;;;;5071612;28;20032;-68
2023/01/02 00:32:29;;;;;;;8.80;2.80;;;13.90;99.90;;;;;;5072069;28;20025;-68
2023/01/02 00:34:54;;;;;;;8.15;4.20;;;13.80;99.90;;;;;;5072710;28;20017;-68
2023/01/02 00:37:20;;;;;;;6.60;3.30;;;13.80;99.90;;;;;;5071994;28;20027;-68
2023/01/02 00:39:45;;;;;;;6.78;2.85;;;13.80;99.90;;;;;;5073225;28;20434;-68
2023/01/02 00:42:11;;;;;;;10.20;3.30;;;13.80;99.90;;;;;;5071786;28;20119;-68
2023/01/02 00:44:36;;;;;;;7.55;4.03;;;13.80;99.90;;;;;;5073149;28;20055;-68
2023/01/02 00:47:02;;;;;;;9.65;3.47;;;13.70;99.90;;;;;;5071622;28;20059;-68
2023/01/02 00:49:27;;;;;;;10.68;3.30;;;13.80;99.90;;;;;;5072769;28;20020;-68
2023/01/02 00:51:53;;;;;;;6.63;2.67;;;13.80;99.90;;;;;;5071512;28;20399;-68
2023/01/02 00:54:18;;;;;;;10.23;3.30;;;13.70;99.90;;;;;;5073037;28;20025;-68
2023/01/02 00:56:44;;;;;;;8.10;3.17;;;13.70;99.90;;;;;;5071704;28;20017;-68
2023/01/02 00:59:09;;;;;;;13.95;3.35;;;13.60;99.90;;;;;;5072708;28;20024;-68
2023/01/02 01:01:35;;;;;;;6.18;3.38;;;13.60;99.90;;;;;;5072629;28;20028;-68
2023/01/02 01:04:00;;;;;;;7.93;3.28;;;13.70;99.90;;;;;;5071396;28;20056;-68
2023/01/02 01:06:26;;;;;;;8.35;2.70;;;13.70;99.90;;;;;;5071328;28;20063;-68
2023/01/02 01:08:51;;;;;;;10.77;3.05;;;13.70;99.90;;;;;;5071347;28;20040;-68
2023/01/02 01:11:17;;;;;;;6.80;2.42;;;13.70;99.90;;;;;;5071250;28;20039;-68
2023/01/02 01:13:43;;;;;;;12.00;3.20;;;13.70;99.90;;;;;;5071757;28;20034;-68
2023/01/02 01:16:12;;;;;;;7.13;3.03;;;13.80;99.90;;;;;;5072033;28;20455;-68
2023/01/02 01:18:38;;;;;;;10.45;3.13;;;13.60;99.90;;;;;;5071393;28;20454;-68
2023/01/02 01:21:09;;;;;;;11.07;2.25;;;13.70;99.90;;;;;;5071187;28;20029;-68
2023/01/02 01:23:35;;;;;;;11.38;3.17;;;13.60;99.90;;;;;;5072431;28;20025;-68
2023/01/02 01:26:09;;;;;;;11.13;2.90;;;13.60;99.90;;;;;;5072536;28;20034;-68
2023/01/02 01:28:36;;;;;;;12.68;3.28;;;13.60;99.90;;;;;;5072567;28;20055;-68
2023/01/02 01:31:10;;;;;;;6.68;3.50;;;13.60;99.90;;;;;;5071223;28;20029;-68
2023/01/02 01:33:37;;;;;;;7.85;2.83;;;13.60;99.90;;;;;;5074623;28;20059;-68
2023/01/02 01:36:08;;;;;;;9.93;2.75;;;13.60;99.90;;;;;;5076092;28;20035;-68
2023/01/02 01:38:34;;;;;;;;;;;13.70;99.90;;;;;;5076785;28;20026;-68
2023/01/02 01:41:00;;;;;;;6.30;3.33;;;13.60;99.90;;;;;;5075873;28;19904;-68
2023/01/02 01:43:41;;;;;;;11.57;3.13;;;13.70;99.90;;;;;;5074849;28;20032;-68
2023/01/02 01:46:28;;;;;;;8.87;2.67;;;13.60;99.90;;;;;;5076418;28;20021;-68
2023/01/02 01:49:12;;;;;;;7.90;3.40;;;13.50;99.90;;;;;;5075899;28;20111;-68
2023/01/02 01:52:06;;;;;;;8.20;2.88;;;13.50;99.90;;;;;;5074738;28;20556;-68
2023/01/02 01:54:37;;;;;;;8.65;3.08;;;13.50;99.90;;;;;;5074130;28;20041;-68
2023/01/02 01:57:21;;;;;;;11.05;3.40;;;13.50;99.90;;;;;;5075030;28;20024;-68
2023/01/02 01:59:48;;;;;;;4.95;2.67;;;13.50;99.90;;;;;;5074922;28;20116;-68
2023/01/02 02:02:14;;;;;;;7.95;2.80;;;13.50;99.90;;;;;;5075973;28;20050;-68
2023/01/02 02:04:42;;;;;;;6.63;2.60;;;13.50;99.90;;;;;;5075645;28;20025;-68
2023/01/02 02:07:08;;;;;;;10.73;2.78;;;13.50;99.90;;;;;;5075052;28;20034;-68
2023/01/02 02:09:45;;;;;;;11.32;2.60;;;13.50;99.90;;;;;;5075438;28;20104;-68
2023/01/02 02:12:12;;;;;;;7.72;2.63;;;13.50;99.90;;;;;;5074803;28;20051;-68
2023/01/02 02:14:37;;;;;;;5.30;2.58;;;13.50;99.90;;;;;;5075410;28;20078;-68
2023/01/02 02:17:12;;;;;;;9.80;2.85;;;13.60;99.90;;;;;;5074072;28;20059;-68
2023/01/02 02:19:58;;;;;;;7.00;2.42;;;13.60;99.90;;;;;;5074047;28;20020;-68
2023/01/02 02:22:51;;;;;;;8.50;2.95;;;13.80;99.90;;;;;;5074815;28;20051;-68
2023/01/02 02:25:25;;;;;;;10.05;3.17;;;13.80;99.90;;;;;;5075254;28;20104;-68
2023/01/02 02:28:41;;;;;;;7.47;2.92;;;13.90;99.90;;;;;;5074088;28;20024;-68
2023/01/02 02:31:33;;;;;;;8.45;3.03;;;13.90;99.90;;;;;;5033016;28;20037;-68
2023/01/02 02:34:04;;;;;;;6.53;2.90;;;13.80;99.90;;;;;;5016468;28;20104;-68
2023/01/02 02:36:39;;;;;;;10.35;3.28;;;13.80;99.90;;;;;;5016590;28;20029;-68
2023/01/02 02:39:11;;;;;;;11.88;3.33;;;13.80;99.90;;;;;;5033012;28;20060;-68
2023/01/02 02:41:45;;;;;;;;;;;13.70;99.90;;;;;;5016725;28;20450;-68
2023/01/02 02:44:34;;;;;;;5.85;2.97;;;13.60;99.90;;;;;;5015566;28;19935;-68
2023/01/02 02:47:26;;;;;;;14.18;3.45;;;13.60;99.90;;;;;;5016113;28;20075;-68
2023/01/02 02:49:56;;;;;;;12.20;2.80;;;13.70;99.90;;;;;;5016385;28;20036;-68
2023/01/02 02:52:28;;;;;;;8.10;2.90;;;13.60;99.90;;;;;;5033026;28;20036;-68
2023/01/02 02:55:38;;;;;;;8.05;2.97;;;13.60;99.90;;;;;;5032763;28;20091;-68
2023/01/02 02:58:04;;;;;;;8.38;3.60;;;13.60;99.90;;;;;;5016549;28;20025;-68
2023/01/02 03:00:30;;;;;;;10.05;3.10;;;13.70;99.90;;;;;;5032585;28;20036;-68
2023/01/02 03:02:56;;;;;;;7.70;2.95;;;13.70;99.90;;;;;;5070400;28;20029;-68
2023/01/02 03:05:29;;;;;;;8.45;3.03;;;13.60;99.90;;;;;;5073249;28;20032;-68
2023/01/02 03:08:07;;;;;;;10.25;2.75;;;13.60;99.90;;;;;;5073896;28;20059;-68
2023/01/02 03:10:42;;;;;;;8.05;3.08;;;13.50;99.90;;;;;;5073780;28;20066;-68
2023/01/02 03:13:13;;;;;;;10.75;3.15;;;13.50;99.90;;;;;;5074273;28;20020;-68
2023/01/02 03:15:43;;;;;;;12.27;3.65;;;13.40;99.90;;;;;;5073045;28;20024;-68
2023/01/02 03:18:25;;;;;;;11.05;2.72;;;13.30;99.90;;;;;;5072897;28;20533;-68
2023/01/02 03:21:21;;;;;;;9.63;3.00;;;13.20;99.90;;;;;;5073023;28;20468;-68
2023/01/02 03:23:47;;;;;;;10.13;2.70;;;13.20;99.90;;;;;;5072972;28;20056;-68
2023/01/02 03:26:21;;;;;;;10.35;2.92;;;13.10;99.90;;;;;;5074063;28;20024;-68
2023/01/02 03:28:53;;;;;;;8.07;3.13;;;13.10;99.90;;;;;;5073776;28;20024;-68
2023/01/02 03:31:21;;;;;;;10.15;2.45;;;13.20;99.90;;;;;;5072640;28;20025;-68
2023/01/02 03:33:54;;;;;;;8.93;2.25;;;13.20;99.90;;;;;;5073959;28;20229;-68
2023/01/02 03:36:27;;;;;;;4.25;2.03;;;13.30;99.90;;;;;;5074138;28;20464;-68
2023/01/02 03:39:14;;;;;;;5.82;2.38;;;13.30;99.90;;;;;;5072561;28;20032;-68
2023/01/02 03:41:54;;;;;;;12.85;2.83;;;13.30;99.90;;;;;;5073211;28;20024;-68
2023/01/02 03:44:22;;;;;;;16.90;3.50;;;13.30;99.90;;;;;;5072530;28;20031;-68
2023/01/02 03:46:57;;;;;;;10.85;2.90;;;13.40;99.90;;;;;;5073273;28;20035;-68
2023/01/02 03:49:31;;;;;;;11.23;2.00;;;13.50;99.90;;;;;;5072611;28;20494;-68
2023/01/02 03:51:57;;;;;;;5.05;2.10;;;13.50;99.90;;;;;;5073499;28;20476;-68
2023/01/02 03:54:22;;;;;;;7.03;2.38;;;13.50;99.90;;;;;;5072273;28;20032;-68
2023/01/02 03:57:03;;;;;;;8.45;2.20;;;13.50;99.90;;;;;;5072845;28;20088;-68
2023/01/02 03:59:47;;;;;;;9.48;2.88;;;13.40;99.90;;;;;;5071956;28;20031;-68
2023/01/02 04:02:31;;;;;;;7.97;2.28;;;13.50;99.90;;;;;;5072362;28;20028;-68
2023/01/02 04:05:10;;;;;;;7.68;2.13;;;13.50;99.90;;;;;;5073681;28;20217;-68
2023/01/02 04:07:58;;;;;;;14.27;2.83;;;13.60;99.90;;;;;;5072191;28;20388;-68
2023/01/02 04:10:26;;;;;;;6.55;1.95;;;13.60;99.90;;;;;;5071844;28;20027;-68
2023/01/02 04:12:54;;;;;;;8.02;2.33;;;13.60;99.90;;;;;;5073227;28;20024;-68
2023/01/02 04:15:23;;;;;;;11.05;2.33;;;13.50;99.90;;;;;;5071906;28;20108;-68
2023/01/02 04:17:55;;;;;;;6.80;2.30;;;13.50;99.90;;;;;;5073193;28;20051;-68
2023/01/02 04:20:29;;;;;;;10.02;2.35;;;13.60;99.90;;;;;;5072125;28;20036;-68
2023/01/02 04:23:00;;;;;;;6.93;2.08;;;13.60;99.90;;;;;;5072124;28;20170;-68
2023/01/02 04:25:36;;;;;;;11.40;2.25;;;13.60;99.90;;;;;;5073204;28;20036;-68
2023/01/02 04:28:18;;;;;;;6.10;2.33;;;13.60;99.90;;;;;;5073334;28;20024;-68
2023/01/02 04:30:48;;;;;;;;;;;13.60;99.90;;;;;;5072179;28;20032;-68
2023/01/02 04:33:16;;;;;;;8.73;3.05;;;13.60;99.90;;;;;;5072062;28;19912;-68
2023/01/02 04:35:41;;;;;;;7.25;2.38;;;13.60;99.90;;;;;;5072110;28;20025;-69
2023/01/02 04:38:09;;;;;;;5.40;2.30;;;13.60;99.90;;;;;;5071670;28;20013;-69
2023/01/02 04:40:36;;;;;;;5.90;2.30;;;13.60;99.90;;;;;;5071711;28;20028;-69
2023/01/02 04:43:06;;;;;;;9.43;2.00;;;13.60;99.90;;;;;;5071712;28;20112;-69
2023/01/02 04:45:31;;;;;;;6.72;2.35;;;13.60;99.90;;;;;;5073168;28;20024;-69
2023/01/02 04:47:57;;;;;;;14.13;2.90;;;13.60;99.90;;;;;;5071489;28;20534;-69
2023/01/02 04:50:22;;;;;;;4.63;2.13;;;13.60;99.90;;;;;;5072715;28;20036;-69
2023/01/02 04:52:48;;;;;;;7.68;2.10;;;13.60;99.90;;;;;;5071450;28;20031;-69
2023/01/02 04:55:13;;;;;;;10.93;3.42;;;13.70;99.90;;;;;;5072794;28;20025;-69
2023/01/02 04:57:39;;;;;;;6.20;2.20;;;13.60;99.90;;;;;;5071439;28;20016;-69
2023/01/02 05:00:06;;;;;;;10.07;2.67;;;13.60;99.90;;;;;;5071430;28;20086;-69
2023/01/02 05:02:35;;;;;;;11.07;2.45;;;13.60;99.90;;;;;;5073135;28;20136;-69
2023/01/02 05:05:01;;;;;;;9.82;3.55;;;13.60;99.90;;;;;;5072754;28;20494;-69
2023/01/02 05:07:27;;;;;;;7.57;2.28;;;13.50;99.90;;;;;;5072820;28;20021;-69
2023/01/02 05:09:52;;;;;;;7.03;2.13;;;13.50;99.90;;;;;;5076484;28;20433;-69
2023/01/02 05:12:18;;;;;;;24.48;2.70;;;13.60;99.90;;;;;;5075482;28;20458;-69
2023/01/02 05:14:43;;;;;;;7.15;1.83;;;13.60;99.90;;;;;;5075247;28;20020;-69
2023/01/02 05:17:09;;;;;;;5.03;1.50;;;13.60;99.90;;;;;;5077006;28;20024;-69
2023/01/02 05:19:34;;;;;;;8.32;1.75;;;13.60;99.90;;;;;;5074917;28;20032;-69
2023/01/02 05:24:44;;;;;;;6.47;2.00;;;13.50;99.90;;;;;;5076948;28;20050;-69
2023/01/02 05:27:09;;;;;;;7.13;2.15;;;13.60;99.90;;;;;;5076280;28;20029;-69
2023/01/02 05:29:35;;;;;;;8.15;2.08;;;13.60;99.90;;;;;;5076669;28;20035;-68
2023/01/02 05:32:00;;;;;;;8.27;2.20;;;13.60;99.90;;;;;;5074900;28;20056;-68
2023/01/02 05:34:26;;;;;;;12.68;2.63;;;13.60;99.90;;;;;;5074913;28;20119;-68
2023/01/02 05:36:51;;;;;;;6.18;1.90;;;13.60;99.90;;;;;;5076050;28;20052;-68
2023/01/02 05:39:17;;;;;;;4.95;1.90;;;13.60;99.90;;;;;;5076347;28;20021;-68
2023/01/02 05:41:42;;;;;;;4.70;2.05;;;13.70;99.90;;;;;;5074961;28;20031;-68
2023/01/02 05:44:09;;;;;;;10.63;2.05;;;13.60;99.90;;;;;;5074734;28;20020;-68
2023/01/02 05:46:37;;;;;;;12.63;2.15;;;13.60;99.90;;;;;;5075567;28;20028;-68
2023/01/02 05:49:06;;;;;;;9.02;2.60;;;13.60;99.90;;;;;;5075330;28;20052;-68
2023/01/02 05:51:32;;;;;;;8.38;1.85;;;13.60;99.90;;;;;;5075718;28;20029;-68
2023/01/02 05:53:58;;;;;;;5.47;1.98;;;13.60;99.90;;;;;;5075742;28;20025;-68
2023/01/02 05:56:25;;;;;;;7.32;2.40;;;13.60;99.90;;;;;;5075762;28;20073;-68
2023/01/02 05:58:51;;;;;;;12.77;3.63;;;13.60;99.90;;;;;;5074556;28;20032;-68
2023/01/02 06:01:23;;;;;;;15.68;2.60;;;13.60;99.90;;;;;;5075631;28;20025;-68
2023/01/02 06:03:52;;;;;;;5.65;2.42;;;13.60;99.90;;;;;;5075246;28;20031;-68
2023/01/02 06:06:39;;;;;;;8.20;1.77;;;13.70;99.90;;;;;;5075859;28;20025;-68
2023/01/02 06:09:05;;;;;;;6.25;1.75;;;13.70;99.90;;;;;;5074256;28;20025;-68
2023/01/02 06:11:31;;;;;;;7.93;2.25;;;13.70;99.90;;;;;;5074138;28;20025;-68
2023/01/02 06:13:57;;;;;;;7.97;3.65;;;13.70;99.90;;;;;;5074986;28;20021;-68
2023/01/02 06:16:23;;;;;;;5.93;2.22;;;13.70;99.90;;;;;;5074205;28;20016;-68
2023/01/02 06:18:49;;;;;;;6.07;1.73;;;13.70;99.90;;;;;;5075323;28;20031;-68
2023/01/02 06:21:17;;;;;;;13.68;2.10;;;13.70;99.90;;;;;;5074371;28;20036;-68
2023/01/02 06:23:43;;;;;;;11.60;2.30;;;13.70;99.90;;;;;;5074445;28;20029;-68
2023/01/02 06:26:11;;;;;;;7.30;2.20;;;13.70;99.90;;;;;;5073890;28;20438;-68
2023/01/02 06:28:37;;;;;;;10.15;2.42;;;13.80;99.90;;;;;;5075109;28;20032;-68
2023/01/02 06:31:12;;;;;;;10.10;2.00;;;13.80;99.90;;;;;;5074976;28;20051;-68
2023/01/02 06:33:37;;;;;;;10.48;2.25;;;13.70;99.90;;;;;;5074125;28;20425;-68
2023/01/02 06:36:10;;;;;;;8.98;2.58;;;13.70;99.90;;;;;;5075126;28;20024;-68
2023/01/02 06:38:36;;;;;;;13.68;2.80;;;13.60;99.90;;;;;;5074981;28;20028;-68
2023/01/02 06:41:02;;;;;;;8.80;2.13;;;13.60;99.90;;;;;;5075145;28;20054;-68
2023/01/02 06:43:29;;;;;;;6.45;2.20;;;13.70;99.90;;;;;;5075154;28;20028;-68
2023/01/02 06:45:57;;;;;;;11.00;2.55;;;13.70;99.90;;;;;;5075067;28;20073;-68
2023/01/02 06:48:23;;;;;;;12.57;2.53;;;13.70;99.90;;;;;;5073522;28;20528;-68
2023/01/02 06:50:48;;;;;;;5.25;1.92;;;13.60;99.90;;;;;;5073820;28;20177;-68
2023/01/02 06:53:14;;;;;;;10.00;2.15;;;13.60;99.90;;;;;;5074320;28;20507;-68
2023/01/02 06:55:50;;;;;;;5.93;2.40;;;13.60;99.90;;;;;;5074616;28;20103;-68
2023/01/02 06:58:16;;;;;;;10.85;2.00;;;13.60;99.90;;;;;;5074649;28;20013;-68
2023/01/02 07:00:41;;;;;;;9.13;2.10;;;13.70;99.90;;;;;;5073813;28;20031;-68
2023/01/02 07:03:06;;;;;;;5.93;2.28;;;13.80;99.90;;;;;;5073542;28;20029;-69
2023/01/02 07:05:32;;;;;;;7.97;2.00;;;13.80;99.90;;;;;;5074346;28;20033;-69
2023/01/02 07:07:58;;;;;;;6.75;1.85;;;13.80;99.90;;;;;;5074344;28;20051;-68
2023/01/02 07:10:23;;;;;;;8.13;2.13;;;13.80;99.90;;;;;;5074729;28;20072;-68
2023/01/02 07:12:48;;;;;;;7.22;2.28;;;13.80;99.90;;;;;;5074639;28;20051;-68
2023/01/02 07:15:14;;;;;;;7.18;1.60;;;13.80;99.90;;;;;;5073550;28;20111;-69
2023/01/02 07:17:40;;;;;;;6.03;1.88;;;13.90;99.90;;;;;;5073725;28;20013;-69
2023/01/02 07:20:06;;;;;;;11.80;1.90;;;13.90;99.90;;;;;;5073799;28;20028;-69
2023/01/02 07:22:32;;;;;;;9.43;2.25;;;13.90;99.90;;;;;;5073261;28;20052;-68
2023/01/02 07:24:57;;;;;;;9.90;2.15;;;13.80;99.90;;;;;;5074491;28;20024;-69
2023/01/02 07:27:23;;;;;;;9.30;2.13;;;13.80;99.90;;;;;;5074208;28;20124;-68
2023/01/02 07:29:48;;;;;;;14.48;2.33;;;13.80;99.90;;;;;;5072172;28;20068;-68
2023/01/02 07:32:14;;;;;;;8.18;1.85;;;13.70;99.90;;;;;;5074504;28;20028;-68
2023/01/02 07:34:39;;;;;;;6.15;2.30;;;13.70;99.90;;;;;;5073173;28;20050;-68
2023/01/02 07:37:05;;;;;;;11.35;1.83;;;13.70;99.90;;;;;;5075739;28;20055;-68
2023/01/02 07:39:30;;;;;;;9.32;1.88;;;13.70;99.90;;;;;;5074442;28;20021;-68
2023/01/02 07:41:56;;;;;;;7.95;2.08;;;13.60;99.90;;;;;;5074163;28;20388;-68
2023/01/02 07:44:52;;;;;;;8.32;1.85;;;13.70;99.90;;;;;;5073947;28;20036;-68
2023/01/02 07:47:18;;;;;;;9.35;1.85;;;13.80;99.90;;;;;;5072422;28;20491;-68
2023/01/02 07:49:43;;;;;;;8.10;1.88;;;13.70;99.90;;;;;;5073756;28;20031;-68
2023/01/02 07:52:10;;;;;;;10.73;2.17;;;13.80;99.90;;;;;;5072361;28;20020;-68
2023/01/02 07:54:36;;;;;;;11.10;2.97;;;13.80;99.90;;;;;;5074664;28;20025;-68
2023/01/02 07:57:02;;;;;;;4.55;1.92;;;13.80;99.90;;;;;;5072692;28;20021;-68
2023/01/02 07:59:27;;;;;;;7.15;1.98;;;13.70;99.90;;;;;;5076010;28;20047;-68
2023/01/02 08:01:53;;;;;;;11.07;2.80;;;13.90;99.90;;;;;;5073310;28;20100;-68
2023/01/02 08:04:18;;;;;;;6.85;1.95;;;13.70;99.90;;;;;;5075440;28;20032;-68
2023/01/02 08:06:44;;;;;;;9.68;2.78;;;13.80;99.90;;;;;;5074498;28;20021;-68
2023/01/02 08:09:09;;;;;;;8.30;2.97;;;13.80;99.90;;;;;;5074425;28;20024;-68
2023/01/02 08:11:36;;;;;;;6.97;1.73;;;13.80;99.90;;;;;;5073229;28;20060;-68
2023/01/02 08:14:01;;;;;;;11.48;2.15;;;13.70;99.90;;;;;;5073294;28;20043;-68
2023/01/02 08:16:27;;;;;;;10.52;2.42;;;13.80;99.90;;;;;;5074400;28;20020;-67
2023/01/02 08:18:57;;;;;;;7.55;2.63;;;13.80;99.90;;;;;;5073540;28;20063;-68
2023/01/02 08:21:24;;;;;;;9.70;2.25;;;13.70;99.90;;;;;;5072155;28;20037;-68
2023/01/02 08:23:50;;;;;;;10.10;1.90;;;13.80;99.90;;;;;;5073250;28;20029;-68
2023/01/02 08:26:15;;;;;;;8.65;2.10;;;13.70;99.90;;;;;;5071793;28;20028;-68
2023/01/02 08:28:41;;;;;;;8.18;2.08;;;13.60;99.90;;;;;;5072199;28;20020;-68
2023/01/02 08:31:13;;;;;;;7.88;2.03;;;13.60;99.90;;;;;;5073285;28;20477;-68
2023/01/02 08:33:39;;;;;;;10.63;2.38;;;13.70;99.90;;;;;;5071899;28;20155;-68
2023/01/02 08:36:05;;;;;;;10.38;2.92;;;13.70;99.90;;;;;;5073086;28;20078;-68
2023/01/02 08:38:30;;;;;;;9.00;2.08;;;13.80;99.90;;;;;;5072134;28;20024;-68
2023/01/02 08:41:00;;;;;;;12.50;2.58;;;13.80;99.90;;;;;;5071773;28;20035;-69
2023/01/02 08:43:26;;;;;;;9.48;2.28;;;13.80;99.90;;;;;;5075322;28;20070;-69
2023/01/02 08:45:52;;;;;;;8.63;3.03;;;13.70;99.90;;;;;;5076524;28;20025;-68
2023/01/02 08:48:17;;;;;;;10.52;2.40;;;13.70;99.90;;;;;;5078177;28;20079;-68
2023/01/02 08:50:46;;;;;;;11.77;3.00;;;13.70;99.90;;;;;;5075880;28;20048;-68
2023/01/02 08:53:11;;;;;;;4.85;2.30;;;13.70;99.90;;;;;;5076589;28;20017;-68
2023/01/02 08:55:37;;;;;;;10.75;2.03;;;13.80;99.90;;;;;;5075701;28;20017;-69
2023/01/02 08:58:02;;;;;;;13.27;2.78;;;13.70;99.90;;;;;;5076182;28;20017;-69
2023/01/02 09:00:28;;;;;;;9.82;2.58;;;13.60;99.90;;;;;;5075519;28;20029;-69
2023/01/02 09:02:53;;;;;;;5.63;1.92;;;13.70;99.90;;;;;;5077037;28;20024;-69
2023/01/02 09:05:19;;;;;;;8.82;2.15;;;13.70;99.90;;;;;;5075437;28;20020;-69
2023/01/02 09:07:44;;;;;;;9.13;2.42;;;13.60;99.90;;;;;;5075452;28;20021;-69
2023/01/02 09:10:10;;;;;;;19.17;2.80;;;13.60;99.90;;;;;;5075574;28;20028;-68
2023/01/02 09:12:36;;;;;;;9.10;2.38;;;13.50;99.90;;;;;;5075534;28;20020;-68
2023/01/02 09:15:02;;;;;;;13.98;2.95;;;13.50;99.90;;;;;;5076034;28;20082;-68
2023/01/02 09:17:29;;;;;;;8.43;2.03;;;13.60;99.90;;;;;;5075740;28;20029;-69
2023/01/02 09:19:55;;;;;;;10.77;2.13;;;13.50;99.90;;;;;;5075358;28;20387;-69
2023/01/02 09:22:20;;;;;;;9.70;2.45;;;13.60;99.90;;;;;;5075094;28;20032;-69
2023/01/02 09:24:45;;;;;;;9.02;2.65;;;13.70;99.90;;;;;;5076583;28;20070;-69
2023/01/02 09:27:11;;;;;;;12.00;2.60;;;13.70;99.90;;;;;;5075149;28;20020;-69
2023/01/02 09:29:37;;;;;;;9.45;1.85;;;13.70;99.90;;;;;;5075260;28;20028;-69
2023/01/02 09:32:02;;;;;;;12.48;2.75;;;13.80;99.90;;;;;;5075197;28;20066;-69
2023/01/02 09:34:28;;;;;;;11.75;2.40;;;13.70;99.90;;;;;;5074976;28;20028;-69
2023/01/02 09:36:53;;;;;;;14.60;2.42;;;13.70;99.90;;;;;;5074931;28;20060;-69
2023/01/02 09:39:19;;;;;;;9.98;2.60;;;13.60;99.90;;;;;;5074798;28;20035;-69
2023/01/02 09:41:49;;;;;;;7.63;2.40;;;13.60;99.90;;;;;;5075919;28;20028;-69
2023/01/02 09:44:26;;;;;;;9.27;2.05;;;13.50;99.90;;;;;;5076078;28;20020;-69
2023/01/02 09:46:54;;;;;;;10.40;2.45;;;13.40;99.90;;;;;;5075981;28;20070;-69
2023/01/02 09:49:27;;;;;;;8.65;2.40;;;13.50;99.90;;;;;;5076167;28;20495;-69
2023/01/02 09:51:53;;;;;;;10.98;1.77;;;13.50;99.90;;;;;;5074594;28;20025;-69
2023/01/02 09:54:22;;;;;;;11.82;2.40;;;13.50;99.90;;;;;;5075696;28;20024;-69
2023/01/02 09:56:58;;;;;;;6.82;2.20;;;13.60;99.90;;;;;;5075053;28;20021;-69
2023/01/02 09:59:32;;;;;;;7.40;2.35;;;13.70;99.90;;;;;;5075120;28;20028;-69
2023/01/02 10:02:25;;;;;;;9.88;2.22;;;13.80;99.90;;;;;;5075339;28;20085;-69
2023/01/02 10:05:18;;;;;;;6.43;2.35;;;13.90;99.90;;;;;;5075321;28;20017;-69
2023/01/02 10:08:17;;;;;;;7.80;2.00;;;13.90;99.90;;;;;;5075623;28;20021;-70
2023/01/02 10:10:56;;;;;;;10.45;2.03;;;13.80;99.90;;;;;;5074192;28;20067;-69
2023/01/02 10:13:40;;;;;;;12.23;1.60;;;13.90;99.90;;;;;;5075180;28;20025;-69
2023/01/02 10:16:11;;;;;;;11.05;2.00;;;13.90;99.90;;;;;;5075483;28;20503;-69
2023/01/02 10:18:42;;;;;;;7.30;2.08;;;13.80;99.90;;;;;;5075691;28;20085;-69
2023/01/02 10:21:18;;;;;;;10.55;1.95;;;13.90;99.90;;;;;;5074118;28;20093;-69
2023/01/02 10:23:51;;;;;;;10.57;2.05;;;13.90;99.90;;;;;;5075348;28;20043;-69
2023/01/02 10:26:19;;;;;;;10.88;2.22;;;13.90;99.90;;;;;;5075422;28;20024;-69
2023/01/02 10:29:27;;;;;;;8.77;2.40;;;13.90;99.90;;;;;;5075348;28;20017;-69
2023/01/02 10:32:03;;;;;;;8.02;2.10;;;13.90;99.90;;;;;;5068827;28;20033;-69
2023/01/02 10:34:41;;;;;;;7.38;2.22;;;13.80;99.90;;;;;;5073903;28;20060;-69
2023/01/02 10:37:16;;;;;;;11.98;2.33;;;13.70;99.90;;;;;;5073886;28;20025;-69
2023/01/02 10:39:44;;;;;;;9.10;1.95;;;13.60;99.90;;;;;;5075218;28;20028;-69
2023/01/02 10:42:12;;;;;;;12.73;2.75;;;13.70;99.90;;;;;;5073734;28;20475;-69
2023/01/02 10:44:39;;;;;;;6.97;1.75;;;13.60;99.90;;;;;;5073696;28;20027;-69
2023/01/02 10:47:19;;;;;;;7.28;1.73;;;13.60;99.90;;;;;;5074961;28;20082;-69
2023/01/02 10:49:46;;;;;;;8.02;2.15;;;13.60;99.90;;;;;;5073998;28;20039;-69
2023/01/02 10:52:30;;;;;;;10.00;2.10;;;13.60;99.90;;;;;;5075291;28;20021;-69
2023/01/02 10:54:57;;;;;;;12.20;2.00;;;13.60;99.90;;;;;;5073522;28;20060;-69
2023/01/02 10:57:32;;;;;;;11.45;2.72;;;13.70;99.90;;;;;;5073402;28;20434;-69
2023/01/02 10:59:59;;;;;;;7.47;2.65;;;13.70;99.90;;;;;;5073527;28;20024;-69
2023/01/02 11:02:35;;;;;;;9.55;2.53;;;13.60;99.90;;;;;;5073661;28;20468;-69
2023/01/02 11:05:03;;;;;;;5.68;2.20;;;13.60;99.90;;;;;;5073278;28;20028;-69
2023/01/02 11:07:33;;;;;;;11.88;2.80;;;13.50;99.90;;;;;;5074300;28;20048;-69
2023/01/02 11:09:59;;;;;;;15.32;2.80;;;13.50;99.90;;;;;;5075163;28;20032;-69
2023/01/02 11:12:25;;;;;;;7.20;1.77;;;13.50;99.90;;;;;;5073023;28;20044;-69
2023/01/02 11:14:51;;;;;;;8.77;2.13;;;13.60;99.90;;;;;;5074288;28;20013;-69
2023/01/02 11:17:20;;;;;;;6.47;2.42;;;13.60;99.90;;;;;;5073672;28;20037;-69
2023/01/02 11:19:49;;;;;;;9.77;2.38;;;13.60;99.90;;;;;;5073381;28;20028;-69
2023/01/02 11:22:19;;;;;;;10.18;2.47;;;13.70;99.90;;;;;;5086743;22;20034;-67
2023/01/02 11:25:01;;;;;;;8.07;2.00;;;13.60;99.90;;;;;;5013226;28;20111;-67
2023/01/02 11:27:34;;;;;;;13.63;2.03;;;13.70;99.90;;;;;;5013206;28;20424;-67
2023/01/02 11:30:01;;;;;;;13.23;2.28;;;13.70;99.90;;;;;;5013960;28;20026;-67
2023/01/02 11:32:37;;;;;;;5.88;1.98;;;13.70;99.90;;;;;;5014381;28;20109;-67
2023/01/02 11:35:03;;;;;;;14.52;2.40;;;13.70;99.90;;;;;;5012914;28;20109;-67
2023/01/02 11:37:29;;;;;;;7.78;2.17;;;13.70;99.90;;;;;;5013479;28;20022;-67
2023/01/02 11:40:05;;;;;;;12.65;2.60;;;13.70;99.90;;;;;;5012905;28;20029;-67
2023/01/02 11:45:19;;;;;;;8.77;1.75;;;13.60;99.90;;;;;;5014222;28;20044;-67
2023/01/02 11:47:57;;;;;;;3.78;1.80;;;13.60;99.90;;;;;;5012731;28;20425;-67
2023/01/02 11:50:32;;;;;;;6.05;1.80;;;13.60;99.90;;;;;;5012818;28;20030;-67
2023/01/02 11:53:10;;;;;;;4.90;2.17;;;13.60;99.90;;;;;;5013954;28;20082;-67
2023/01/02 11:55:43;;;;;;;6.53;1.55;;;13.70;99.90;;;;;;5014133;28;20046;-67
2023/01/02 11:58:23;;;;;;;13.35;2.25;;;13.70;99.90;;;;;;5013134;28;20038;-67
2023/01/02 12:00:53;;;;;;;7.65;1.95;;;13.60;99.90;;;;;;5012496;28;20064;-67
2023/01/02 12:03:25;;;;;;;6.00;1.73;;;13.70;99.90;;;;;;5012990;28;20053;-67
2023/01/02 12:06:14;;;;;;;11.57;2.22;;;13.70;99.90;;;;;;5013689;28;20022;-67
2023/01/02 12:09:02;;;;;;;11.63;1.73;;;13.70;99.90;;;;;;5012434;28;20029;-67
2023/01/02 12:12:00;;;;;;;7.78;2.22;;;13.60;99.90;;;;;;5013376;28;20181;-67
2023/01/02 12:15:01;;;;;;;4.32;1.92;;;13.50;99.90;;;;;;5013566;28;20032;-67
2023/01/02 12:17:42;;;;;;;6.15;2.33;;;13.50;99.90;;;;;;5013362;28;20025;-67
2023/01/02 12:20:28;;;;;;;5.60;1.35;;;13.50;99.90;;;;;;5013609;28;20075;-67
2023/01/02 12:23:22;;;;;;;5.43;1.88;;;13.50;99.90;;;;;;5013606;28;20026;-67
2023/01/02 12:25:47;;;;;;;11.65;1.83;;;13.40;99.90;;;;;;5012171;28;20018;-67
2023/01/02 12:28:48;;;;;;;7.38;2.10;;;13.40;99.90;;;;;;5012179;28;20022;-67
2023/01/02 12:31:49;;;;;;;5.50;1.50;;;13.50;99.90;;;;;;5013152;28;20022;-67
2023/01/02 12:34:42;;;;;;;6.68;1.55;;;13.50;99.90;;;;;;5012209;28;20032;-67
2023/01/02 12:37:21;;;;;;;8.60;2.00;;;13.40;99.90;;;;;;5013652;28;20034;-67
2023/01/02 12:39:49;;;;;;;4.18;1.60;;;13.40;99.90;;;;;;5013619;28;20029;-67
2023/01/02 12:42:23;;;;;;;15.75;2.00;;;13.40;99.90;;;;;;5011899;28;20037;-67
2023/01/02 12:44:53;;;;;;;4.95;1.80;;;13.50;99.90;;;;;;5013537;28;20029;-67
2023/01/02 12:47:50;;;;;;;8.25;1.67;;;13.50;99.90;;;;;;5013177;28;20045;-67
2023/01/02 12:50:42;;;;;;;7.28;1.95;;;13.40;99.90;;;;;;5013310;28;20540;-67
2023/01/02 12:53:19;;;;;;;6.05;1.90;;;13.50;99.90;;;;;;5013152;28;20037;-67
2023/01/02 12:56:01;;;;;;;7.65;1.67;;;13.50;99.90;;;;;;5012803;28;20108;-67
2023/01/02 12:58:54;;;;;;;4.22;1.63;;;13.50;99.90;;;;;;5011912;28;20489;-67
2023/01/02 13:01:28;;;;;;;7.93;2.15;;;13.50;99.90;;;;;;5011985;28;20022;-67
2023/01/02 13:04:31;;;;;;;7.63;2.20;;;13.50;99.90;;;;;;5011707;28;20062;-67
2023/01/02 13:07:02;;;;;;;5.93;1.33;;;13.50;99.90;;;;;;4960044;28;20035;-67
2023/01/02 13:09:40;;;;;;;9.10;1.83;;;13.50;99.90;;;;;;5011740;28;20022;-67